Offutt Lake, Washington
Current Conditions -  °F | °C
As of 7:34 AM on Friday 24 Oct 2014 (Local Time) from KOLM Reporting Station
Moderate Fog Moderate Fog  
Wind Chill: 43°   Ceiling: 200
Heat Index: 43°   Visibility: 0.25mi
Dew Point: 42°   Wind: 0mph
Humidity: 97%   Direction: NA
Pressure: 30.04"   Gusts: NA
Location:  46.9755°N, 122.872°W
Report Text: KOLM 241434Z AUTO 00000KT 1/4SM FG VV002 06/06 A3004 RMK AO2 T00610056
Loading
Personal Weather Stations






























Interactive Weather Map New forecast layout! Learn more

10-Day Weather Forecast

Advertisements
Track Severe Weather on mobile